Time;durP1;ratioP1;P1;durP2;ratioP2;P2;SDS_P1;SDS_P2;PMS_P1;PMS_P2;Temp;Humidity;BMP_temperature;BMP_pressure;BME280_temperature;BME280_humidity;BME280_pressure;Samples;Min_cycle;Max_cycle;Signal;HPM_P1;HPM_P2
2023/10/02 02:56:56;;;;;;;33.58;15.77;;;17.00;99.90;;;;;;5858164;23;20050;-77
2023/10/02 02:59:26;;;;;;;34.83;16.92;;;17.00;99.90;;;;;;5034044;28;20041;-77
2023/10/02 03:02:08;;;;;;;29.85;14.73;;;17.00;99.90;;;;;;5035114;28;20124;-76
2023/10/02 03:04:40;;;;;;;32.33;15.07;;;17.00;99.90;;;;;;5034743;28;20543;-77
2023/10/02 03:07:18;;;;;;;32.22;16.08;;;17.00;99.90;;;;;;5034406;28;20049;-76
2023/10/02 03:09:44;;;;;;;33.25;15.75;;;17.00;99.90;;;;;;5034668;28;20428;-77
2023/10/02 03:12:09;;;;;;;30.90;16.85;;;17.00;99.90;;;;;;5035888;28;20036;-77
2023/10/02 03:14:35;;;;;;;36.03;15.90;;;17.00;99.90;;;;;;5035501;28;20042;-76
2023/10/02 03:19:46;;;;;;;32.78;15.20;;;17.00;99.90;;;;;;5035451;28;20495;-76
2023/10/02 03:22:11;;;;;;;31.30;16.45;;;17.00;99.90;;;;;;5034787;28;20045;-76
2023/10/02 03:24:39;;;;;;;32.58;15.88;;;17.00;99.90;;;;;;5033448;28;20490;-76
2023/10/02 03:27:08;;;;;;;33.45;16.98;;;17.00;99.90;;;;;;5031897;28;20121;-76
2023/10/02 03:29:34;;;;;;;33.95;17.55;;;17.00;99.90;;;;;;5034361;28;20037;-75
2023/10/02 03:32:04;;;;;;;34.05;17.25;;;17.00;99.90;;;;;;5033920;28;20038;-76
2023/10/02 03:34:34;;;;;;;31.15;15.65;;;17.00;99.90;;;;;;5034410;28;20050;-77
2023/10/02 03:40:45;;;;;;;33.58;16.42;;;16.90;99.90;;;;;;5034056;28;20476;-76
2023/10/02 03:42:39;;;;;;;33.78;16.83;;;16.90;99.90;;;;;;5025118;28;20041;-77
2023/10/02 03:45:06;;;;;;;33.00;16.35;;;16.90;99.90;;;;;;5017226;28;20167;-76
2023/10/02 03:47:35;;;;;;;35.67;17.02;;;16.80;99.90;;;;;;5033620;28;20049;-77
2023/10/02 03:50:02;;;;;;;33.22;17.25;;;16.80;99.90;;;;;;5034712;28;20041;-76
2023/10/02 03:52:30;;;;;;;35.78;16.77;;;16.80;99.90;;;;;;5034848;28;20477;-76
2023/10/02 03:54:56;;;;;;;31.60;16.42;;;16.80;99.90;;;;;;5033527;28;20041;-76
2023/10/02 03:57:47;;;;;;;34.63;17.55;;;16.70;99.90;;;;;;5033573;28;20041;-76
2023/10/02 04:02:45;;;;;;;32.65;16.67;;;16.70;99.90;;;;;;5033622;28;20045;-76
2023/10/02 04:05:13;;;;;;;30.63;15.95;;;16.70;99.90;;;;;;5016848;28;20037;-76
2023/10/02 04:07:39;;;;;;;33.83;16.90;;;16.70;99.90;;;;;;5033305;28;20076;-76
2023/10/02 04:10:07;;;;;;;29.75;15.45;;;16.60;99.90;;;;;;5033187;28;20107;-78
2023/10/02 04:12:50;;;;;;;28.23;16.10;;;16.60;99.90;;;;;;5033381;28;20427;-76
2023/10/02 04:15:16;;;;;;;34.08;16.83;;;16.60;99.90;;;;;;5034322;28;20042;-76
2023/10/02 04:17:49;;;;;;;37.42;16.88;;;16.50;99.90;;;;;;5033063;28;20041;-76
2023/10/02 04:20:27;;;;;;;31.33;16.08;;;16.50;99.90;;;;;;5033617;28;20096;-75
2023/10/02 04:22:54;;;;;;;38.65;16.92;;;16.50;99.90;;;;;;5034071;28;20381;-76
2023/10/02 04:25:24;;;;;;;32.08;16.80;;;16.50;99.90;;;;;;5033139;28;20154;-76
2023/10/02 04:32:59;;;;;;;31.95;16.58;;;16.40;99.90;;;;;;5032776;28;20571;-76
2023/10/02 04:38:14;;;;;;;35.03;16.85;;;16.40;99.90;;;;;;5032691;28;20037;-76
2023/10/02 04:40:49;;;;;;;34.35;17.08;;;16.40;99.90;;;;;;5033776;28;20223;-76
2023/10/02 04:43:19;;;;;;;32.58;16.50;;;16.40;99.90;;;;;;5032681;28;20041;-77
2023/10/02 04:45:52;;;;;;;33.25;15.73;;;16.40;99.90;;;;;;5032610;28;20052;-77
2023/10/02 04:48:26;;;;;;;28.00;15.20;;;16.40;99.90;;;;;;5032785;28;20492;-76
2023/10/02 04:50:56;;;;;;;30.48;15.80;;;16.40;99.90;;;;;;5032645;28;20162;-77
2023/10/02 04:53:25;;;;;;;33.55;15.38;;;16.30;99.90;;;;;;5032765;28;20075;-76
2023/10/02 04:56:07;;;;;;;34.35;16.65;;;16.40;99.90;;;;;;5032394;28;20131;-76
2023/10/02 04:58:36;;;;;;;30.30;15.45;;;16.40;99.90;;;;;;5032847;28;20428;-77
2023/10/02 05:03:34;;;;;;;33.85;16.73;;;16.30;99.90;;;;;;5032601;28;20180;-77
2023/10/02 05:06:00;;;;;;;31.80;15.40;;;16.30;99.90;;;;;;5032319;28;20626;-77
2023/10/02 05:08:40;;;;;;;36.92;17.20;;;16.30;99.90;;;;;;5032185;28;20064;-77
2023/10/02 05:11:07;;;;;;;33.60;16.20;;;16.30;99.90;;;;;;5032196;28;20049;-76
2023/10/02 05:16:35;;;;;;;35.08;16.45;;;16.30;99.90;;;;;;5033640;28;20400;-76
2023/10/02 05:19:05;;;;;;;30.35;15.10;;;16.20;99.90;;;;;;5032094;28;20045;-77
2023/10/02 05:21:49;;;;;;;35.97;16.40;;;16.20;99.90;;;;;;5031765;28;20045;-77
2023/10/02 05:24:16;;;;;;;32.78;15.73;;;16.20;99.90;;;;;;5032036;28;20045;-76
2023/10/02 05:26:44;;;;;;;36.75;16.15;;;16.20;99.90;;;;;;5031887;28;20167;-75
2023/10/02 05:29:17;;;;;;;30.98;15.25;;;16.20;99.90;;;;;;5033206;28;20494;-76
2023/10/02 05:31:47;;;;;;;35.22;16.15;;;16.20;99.90;;;;;;5031893;28;20045;-76
2023/10/02 05:34:24;;;;;;;35.33;16.30;;;16.10;99.90;;;;;;5031739;28;20046;-77
2023/10/02 05:39:31;;;;;;;31.05;15.43;;;16.10;99.90;;;;;;5033140;28;20046;-75
2023/10/02 05:42:05;;;;;;;31.20;16.30;;;16.00;99.90;;;;;;5033105;28;20491;-76
2023/10/02 05:44:37;;;;;;;36.80;16.48;;;16.00;99.90;;;;;;5031583;28;20608;-77
2023/10/02 05:47:07;;;;;;;31.63;15.20;;;16.00;99.90;;;;;;5033096;28;20393;-77
2023/10/02 05:49:47;;;;;;;34.42;16.88;;;16.00;99.90;;;;;;5031875;28;20045;-77
2023/10/02 05:52:14;;;;;;;30.25;15.63;;;16.00;99.90;;;;;;5031980;28;20397;-77
2023/10/02 05:54:47;;;;;;;38.40;15.25;;;16.00;99.90;;;;;;5015201;28;20485;-76
2023/10/02 05:57:13;;;;;;;31.92;15.63;;;16.00;99.90;;;;;;5031516;28;20041;-76
2023/10/02 05:59:47;;;;;;;32.78;15.55;;;16.00;99.90;;;;;;5031657;28;20042;-76
2023/10/02 06:02:19;;;;;;;35.05;17.30;;;16.00;99.90;;;;;;5031838;28;20096;-76
2023/10/02 06:04:49;;;;;;;31.23;15.90;;;16.00;99.90;;;;;;5031910;28;20405;-76
2023/10/02 06:07:43;;;;;;;35.10;16.08;;;16.00;99.90;;;;;;5031573;28;20049;-77
2023/10/02 06:10:18;;;;;;;33.65;16.10;;;16.00;99.90;;;;;;5031554;28;20045;-76
2023/10/02 06:12:46;;;;;;;36.92;15.90;;;16.00;99.90;;;;;;5031545;28;20051;-75
2023/10/02 06:17:59;;;;;;;35.17;16.55;;;16.10;99.90;;;;;;5031417;28;20052;-76
2023/10/02 06:20:25;;;;;;;36.28;17.25;;;16.10;99.90;;;;;;5031769;28;20370;-76
2023/10/02 06:23:03;;;;;;;31.58;15.60;;;16.20;99.90;;;;;;5031524;28;20099;-76
2023/10/02 06:25:29;;;;;;;32.88;16.20;;;16.20;99.90;;;;;;5031540;28;20099;-76
2023/10/02 06:28:14;;;;;;;34.97;15.98;;;16.20;99.90;;;;;;5031409;28;20127;-76
2023/10/02 06:30:40;;;;;;;36.60;16.33;;;16.30;99.90;;;;;;5031544;28;20052;-76
2023/10/02 06:33:08;;;;;;;34.40;16.10;;;16.20;99.90;;;;;;5031755;28;20054;-75
2023/10/02 06:35:33;;;;;;;32.22;15.23;;;16.20;99.90;;;;;;5035219;28;20531;-77
2023/10/02 06:38:15;;;;;;;34.53;15.30;;;16.30;99.90;;;;;;5035130;28;20053;-76
2023/10/02 06:40:55;;;;;;;33.30;15.95;;;16.20;99.90;;;;;;5034952;28;20402;-76
2023/10/02 06:43:31;;;;;;;35.35;15.40;;;16.20;99.90;;;;;;5035209;28;20038;-76
2023/10/02 06:46:07;;;;;;;32.60;15.65;;;16.30;99.90;;;;;;5034919;28;20052;-79
2023/10/02 06:48:39;;;;;;;29.40;15.10;;;16.30;99.90;;;;;;5018670;28;20439;-79
2023/10/02 06:51:07;;;;;;;33.65;16.23;;;16.30;99.90;;;;;;5034907;28;20064;-77
2023/10/02 06:53:33;;;;;;;31.88;15.80;;;16.30;99.90;;;;;;5034709;28;20120;-77
2023/10/02 06:56:07;;;;;;;34.53;16.30;;;16.30;99.90;;;;;;5034929;28;20045;-78
2023/10/02 06:58:52;;;;;;;30.42;15.00;;;16.30;99.90;;;;;;5034533;28;20049;-75
2023/10/02 07:01:18;;;;;;;31.80;14.63;;;16.30;99.90;;;;;;5034701;28;20107;-77
2023/10/02 07:03:51;;;;;;;32.22;15.55;;;16.30;99.90;;;;;;5034658;28;20039;-78
2023/10/02 07:06:20;;;;;;;32.75;15.55;;;16.40;99.90;;;;;;5036234;28;20052;-76
2023/10/02 07:08:48;;;;;;;33.67;16.20;;;16.40;99.90;;;;;;5035583;28;20137;-77
2023/10/02 07:11:14;;;;;;;32.60;16.38;;;16.40;99.90;;;;;;5034282;28;20535;-77
2023/10/02 07:13:51;;;;;;;60.22;17.42;;;16.40;99.90;;;;;;5034339;28;20037;-81
2023/10/02 07:16:19;;;;;;;34.38;16.27;;;16.50;99.90;;;;;;5034383;28;20048;-77
2023/10/02 07:18:53;;;;;;;31.02;15.82;;;16.50;99.90;;;;;;5034414;28;20050;-77
2023/10/02 07:21:22;;;;;;;33.38;16.13;;;16.50;99.90;;;;;;5034437;28;20076;-75
2023/10/02 07:23:48;;;;;;;35.13;15.60;;;16.60;99.90;;;;;;5034119;28;20076;-76
2023/10/02 07:26:17;;;;;;;35.83;15.90;;;16.60;99.90;;;;;;5034103;28;20050;-76
2023/10/02 07:28:50;;;;;;;31.88;15.73;;;16.60;99.90;;;;;;5034026;28;20041;-77
2023/10/02 07:31:23;;;;;;;35.70;16.48;;;16.60;99.90;;;;;;5034065;28;20049;-76
2023/10/02 07:33:54;;;;;;;36.55;16.70;;;16.60;99.90;;;;;;5035669;28;20035;-77
2023/10/02 07:36:20;;;;;;;35.15;16.83;;;16.70;99.90;;;;;;5033880;28;20116;-76
2023/10/02 07:38:47;;;;;;;33.50;16.48;;;16.70;99.90;;;;;;5033808;28;20116;-76
2023/10/02 07:41:16;;;;;;;34.10;17.05;;;16.80;99.90;;;;;;5034917;28;20037;-77
2023/10/02 07:43:42;;;;;;;32.63;15.90;;;16.80;99.90;;;;;;5033495;28;20073;-77
2023/10/02 07:46:19;;;;;;;36.78;16.35;;;16.90;99.90;;;;;;5033538;28;20493;-78
2023/10/02 07:49:04;;;;;;;36.90;17.35;;;16.90;99.90;;;;;;5033537;28;20053;-78
2023/10/02 07:51:35;;;;;;;35.83;17.40;;;16.90;99.90;;;;;;5034233;28;20385;-77
2023/10/02 07:54:02;;;;;;;37.22;17.98;;;17.00;99.90;;;;;;5033654;28;20107;-77
2023/10/02 07:56:29;;;;;;;35.03;17.13;;;17.10;99.90;;;;;;5032805;28;20043;-76
2023/10/02 07:59:01;;;;;;;38.83;17.27;;;17.10;99.90;;;;;;5033437;28;20045;-77
2023/10/02 08:01:33;;;;;;;34.70;16.77;;;17.10;99.90;;;;;;5033429;28;20049;-76
2023/10/02 08:04:01;;;;;;;40.20;17.17;;;17.20;99.90;;;;;;5035204;28;20386;-77
2023/10/02 08:06:33;;;;;;;47.17;18.98;;;17.30;99.90;;;;;;5033456;28;20077;-79
2023/10/02 08:12:29;;;;;;;36.60;17.58;;;17.40;99.90;;;;;;5012771;28;20038;-76
2023/10/02 08:15:00;;;;;;;35.20;18.02;;;17.50;99.90;;;;;;4996142;28;20138;-75
2023/10/02 08:17:59;;;;;;;39.95;18.45;;;17.60;99.90;;;;;;5002206;28;20053;-77
2023/10/02 08:20:31;;;;;;;40.60;17.98;;;17.70;99.90;;;;;;5032983;28;20080;-77
2023/10/02 08:22:58;;;;;;;43.22;21.33;;;17.80;99.90;;;;;;5034859;28;20041;-76
2023/10/02 08:25:23;;;;;;;38.55;19.60;;;17.90;99.90;;;;;;5032926;28;20099;-78
2023/10/02 08:27:58;;;;;;;43.65;20.67;;;17.90;99.90;;;;;;5032868;28;20397;-78
2023/10/02 08:30:31;;;;;;;38.90;19.73;;;18.00;99.90;;;;;;5032928;28;20056;-76
2023/10/02 08:33:08;;;;;;;41.92;20.92;;;18.00;99.90;;;;;;5032897;28;20051;-78
2023/10/02 08:35:37;;;;;;;47.30;21.85;;;18.10;99.90;;;;;;5032860;28;20416;-78
2023/10/02 08:38:07;;;;;;;39.70;19.73;;;18.20;99.90;;;;;;5032720;28;20492;-77
2023/10/02 08:40:40;;;;;;;43.22;20.25;;;18.30;99.90;;;;;;5032840;28;20043;-76
2023/10/02 08:43:05;;;;;;;46.60;22.15;;;18.40;99.90;;;;;;5032732;28;20049;-78
2023/10/02 08:45:33;;;;;;;45.40;21.17;;;18.50;99.90;;;;;;5032695;28;20116;-77
2023/10/02 08:48:07;;;;;;;44.35;22.23;;;18.50;99.90;;;;;;5033840;28;20121;-79
2023/10/02 08:50:33;;;;;;;47.35;21.80;;;18.60;99.90;;;;;;5033930;28;20048;-76
2023/10/02 08:53:04;;;;;;;47.90;22.67;;;18.60;99.90;;;;;;5016076;28;20046;-75
2023/10/02 08:55:51;;;;;;;45.25;22.58;;;18.60;99.90;;;;;;5015810;28;20052;-79
2023/10/02 08:58:21;;;;;;;50.80;23.15;;;18.70;99.90;;;;;;5032277;28;20388;-78
2023/10/02 09:03:42;;;;;;;45.55;21.42;;;18.70;99.90;;;;;;5032659;28;20049;-76
2023/10/02 09:06:32;;;;;;;43.42;21.85;;;18.80;99.90;;;;;;5033598;28;20078;-76
2023/10/02 09:11:44;;;;;;;53.08;23.95;;;18.90;99.90;;;;;;5032622;28;20397;-78
2023/10/02 09:14:21;;;;;;;52.83;24.67;;;18.90;99.90;;;;;;5032189;28;20103;-77
2023/10/02 09:17:07;;;;;;;49.72;23.50;;;18.90;99.90;;;;;;5032522;28;20099;-78
2023/10/02 09:19:37;;;;;;;48.42;24.05;;;18.90;99.90;;;;;;5032951;28;20107;-77
2023/10/02 09:22:06;;;;;;;47.58;23.45;;;18.90;99.90;;;;;;5032260;28;20099;-78
2023/10/02 09:24:38;;;;;;;51.33;24.75;;;18.90;99.90;;;;;;5032267;28;20045;-78
2023/10/02 09:27:23;;;;;;;52.15;24.88;;;19.00;99.90;;;;;;5032193;28;20056;-76
2023/10/02 09:32:47;;;;;;;50.15;25.70;;;18.80;99.90;;;;;;5032143;28;20123;-78
2023/10/02 09:35:29;;;;;;;52.60;24.75;;;18.80;99.90;;;;;;5033327;28;20561;-76
2023/10/02 09:38:10;;;;;;;49.58;23.90;;;18.80;99.90;;;;;;5032010;28;20056;-78
2023/10/02 09:41:14;;;;;;;46.45;24.67;;;18.70;99.90;;;;;;5015579;28;20084;-79
2023/10/02 09:43:41;;;;;;;54.30;26.52;;;18.70;99.90;;;;;;5032565;28;20045;-77
2023/10/02 09:46:29;;;;;;;55.05;25.90;;;18.70;99.90;;;;;;5032198;28;20100;-78
2023/10/02 09:49:09;;;;;;;50.15;25.45;;;18.70;99.90;;;;;;5031936;28;20049;-77
2023/10/02 09:52:23;;;;;;;52.78;24.63;;;18.80;99.90;;;;;;5032035;28;20053;-77
2023/10/02 09:55:04;;;;;;;53.67;26.58;;;18.90;99.90;;;;;;5032353;28;20116;-76
2023/10/02 09:57:50;;;;;;;52.03;26.60;;;19.00;99.90;;;;;;5031685;28;20091;-78
2023/10/02 10:00:37;;;;;;;55.78;25.75;;;19.00;99.90;;;;;;5032132;28;20037;-77
2023/10/02 10:03:24;;;;;;;46.88;23.75;;;19.00;99.90;;;;;;5032104;28;20139;-79
2023/10/02 10:06:16;;;;;;;49.25;24.48;;;19.10;99.90;;;;;;5031716;28;20052;-76
2023/10/02 10:11:39;;;;;;;52.78;25.05;;;19.10;99.90;;;;;;5035558;28;20056;-80
2023/10/02 10:14:36;;;;;;;58.20;26.98;;;19.10;99.90;;;;;;5035408;28;20132;-79
2023/10/02 10:17:12;;;;;;;55.55;26.50;;;19.10;99.90;;;;;;5036952;28;20124;-77
2023/10/02 10:19:41;;;;;;;55.25;26.60;;;19.10;99.90;;;;;;5035491;28;20113;-77
2023/10/02 10:22:36;;;;;;;59.55;27.42;;;19.10;99.90;;;;;;5035581;28;20045;-77
2023/10/02 10:27:40;;;;;;;50.97;26.10;;;19.10;99.90;;;;;;5036625;28;20045;-77
2023/10/02 10:30:28;;;;;;;53.33;25.88;;;19.10;99.90;;;;;;5036394;28;20099;-77
2023/10/02 10:35:41;;;;;;;57.92;27.00;;;19.20;99.90;;;;;;5036311;28;20137;-76
2023/10/02 10:38:25;;;;;;;56.60;28.10;;;19.20;99.90;;;;;;5034955;28;20050;-76
2023/10/02 10:41:06;;;;;;;53.17;26.25;;;19.20;99.90;;;;;;5035026;28;20052;-77
2023/10/02 10:44:06;;;;;;;57.70;26.83;;;19.20;99.90;;;;;;5035753;28;20056;-78
2023/10/02 10:46:31;;;;;;;58.15;27.67;;;19.20;99.90;;;;;;5034610;28;20080;-77
2023/10/02 10:49:07;;;;;;;55.15;26.10;;;19.20;99.90;;;;;;5034885;28;20033;-76
2023/10/02 10:51:35;;;;;;;56.92;28.38;;;19.20;99.90;;;;;;5034877;28;20080;-78
2023/10/02 10:54:25;;;;;;;61.28;27.50;;;19.20;99.90;;;;;;5034764;28;20076;-77
2023/10/02 10:56:58;;;;;;;55.53;26.90;;;19.10;99.90;;;;;;5034840;28;20038;-76
2023/10/02 10:59:32;;;;;;;55.67;26.88;;;19.20;99.90;;;;;;5035794;28;20116;-77
2023/10/02 11:02:12;;;;;;;53.92;26.08;;;19.20;99.90;;;;;;5034818;28;20450;-78
2023/10/02 11:04:51;;;;;;;53.38;27.25;;;19.20;99.90;;;;;;5034607;28;20044;-77
2023/10/02 11:07:25;;;;;;;55.72;27.02;;;19.20;99.90;;;;;;5035062;28;20184;-78
2023/10/02 11:10:19;;;;;;;53.92;27.50;;;19.20;99.90;;;;;;5035535;28;20056;-78
2023/10/02 11:13:08;;;;;;;56.67;26.85;;;19.20;99.90;;;;;;5034411;28;20060;-78
2023/10/02 11:15:46;;;;;;;60.85;26.27;;;19.20;99.90;;;;;;5034385;28;20050;-77
2023/10/02 11:18:18;;;;;;;60.80;27.90;;;19.30;99.90;;;;;;5034581;28;20121;-77
2023/10/02 11:20:54;;;;;;;54.20;27.00;;;19.30;99.90;;;;;;5034968;28;20038;-77
2023/10/02 11:23:45;;;;;;;54.42;27.27;;;19.40;99.90;;;;;;5034572;28;20511;-77
2023/10/02 11:26:12;;;;;;;54.42;26.90;;;19.50;99.90;;;;;;5035848;28;20539;-78
2023/10/02 11:28:40;;;;;;;54.38;27.65;;;19.60;99.90;;;;;;5034085;28;20050;-76
2023/10/02 11:31:29;;;;;;;51.88;26.05;;;19.60;99.90;;;;;;5034074;28;20127;-77
2023/10/02 11:34:21;;;;;;;52.58;26.67;;;19.70;99.90;;;;;;5034266;28;20060;-76
2023/10/02 11:36:53;;;;;;;51.90;27.88;;;19.70;99.90;;;;;;5031228;28;20049;-77
2023/10/02 11:39:19;;;;;;;52.28;27.20;;;19.70;99.90;;;;;;5035485;28;20034;-77
2023/10/02 11:41:48;;;;;;;56.00;28.38;;;19.80;99.90;;;;;;5035397;28;20056;-78
2023/10/02 11:44:14;;;;;;;54.83;28.10;;;20.00;99.90;;;;;;5033796;28;20136;-76
2023/10/02 11:46:40;;;;;;;52.92;26.73;;;20.10;99.90;;;;;;5033984;28;20041;-77
2023/10/02 11:49:07;;;;;;;46.90;25.40;;;20.10;99.90;;;;;;5033761;28;20392;-78
2023/10/02 11:51:33;;;;;;;49.85;26.52;;;20.10;99.90;;;;;;5033705;28;20063;-78
2023/10/02 11:54:01;;;;;;;50.50;25.95;;;20.20;99.90;;;;;;5033682;28;20117;-79
2023/10/02 11:56:26;;;;;;;46.63;25.80;;;20.10;99.90;;;;;;5033424;28;20512;-77
2023/10/02 11:58:53;;;;;;;45.85;25.67;;;20.20;99.90;;;;;;5033626;28;20037;-78
2023/10/02 12:01:21;;;;;;;48.00;25.30;;;20.20;99.90;;;;;;5033498;28;20068;-78
2023/10/02 12:03:48;;;;;;;46.72;24.63;;;20.30;99.90;;;;;;5033443;28;20041;-76
2023/10/02 12:06:16;;;;;;;42.20;24.08;;;20.40;99.90;;;;;;5017286;28;20481;-78
2023/10/02 12:08:49;;;;;;;47.15;25.33;;;20.40;99.90;;;;;;5033309;28;20053;-76
2023/10/02 12:11:14;;;;;;;46.20;23.85;;;20.50;99.90;;;;;;5033445;28;20045;-76
2023/10/02 12:13:44;;;;;;;48.92;23.35;;;20.50;99.90;;;;;;5034649;28;20041;-77
2023/10/02 12:16:11;;;;;;;42.28;21.55;;;20.50;99.90;;;;;;5033216;28;20124;-77
2023/10/02 12:18:43;;;;;;;45.08;21.58;;;20.50;99.90;;;;;;5033377;28;20102;-77
2023/10/02 12:21:11;;;;;;;42.80;22.63;;;20.50;99.90;;;;;;5033218;28;20043;-78
2023/10/02 12:23:40;;;;;;;41.53;22.70;;;20.50;99.90;;;;;;5033416;28;20424;-81
2023/10/02 12:26:15;;;;;;;44.28;22.17;;;20.50;99.90;;;;;;5033138;28;20041;-76
2023/10/02 12:28:42;;;;;;;42.15;21.15;;;20.50;99.90;;;;;;5034308;28;20393;-77
2023/10/02 12:31:14;;;;;;;41.55;20.85;;;20.50;99.90;;;;;;5033321;28;20030;-78
2023/10/02 12:33:44;;;;;;;45.97;21.83;;;20.60;99.90;;;;;;5032924;28;20065;-76
2023/10/02 12:36:18;;;;;;;40.33;19.08;;;20.60;99.90;;;;;;5032734;28;20041;-77
2023/10/02 12:38:45;;;;;;;44.83;20.42;;;20.60;99.90;;;;;;5033116;28;20441;-76
2023/10/02 12:41:15;;;;;;;40.17;19.50;;;20.60;99.90;;;;;;5034273;28;20060;-78
2023/10/02 12:43:45;;;;;;;38.78;19.00;;;20.50;99.90;;;;;;5032789;28;20038;-76
2023/10/02 12:46:16;;;;;;;36.65;19.23;;;20.50;99.90;;;;;;5032889;28;20041;-77
2023/10/02 12:48:46;;;;;;;38.67;18.92;;;20.60;99.90;;;;;;5032065;28;20488;-76
2023/10/02 12:51:13;;;;;;;35.08;18.15;;;20.60;99.90;;;;;;5033221;28;20081;-77
2023/10/02 12:53:40;;;;;;;37.42;18.42;;;20.60;99.90;;;;;;5032591;28;20049;-76
2023/10/02 12:56:06;;;;;;;38.08;18.77;;;20.60;99.90;;;;;;5032452;28;20551;-77
2023/10/02 12:58:34;;;;;;;35.60;18.85;;;20.60;99.90;;;;;;5033097;28;20120;-76
2023/10/02 13:01:00;;;;;;;32.75;17.33;;;20.60;99.90;;;;;;5032465;28;20489;-77
2023/10/02 13:03:32;;;;;;;33.88;17.35;;;20.60;99.90;;;;;;5033639;28;20052;-76
2023/10/02 13:05:59;;;;;;;34.85;17.48;;;20.60;99.90;;;;;;5032373;28;20120;-77
2023/10/02 13:08:26;;;;;;;34.42;17.58;;;20.60;99.90;;;;;;5032907;28;20056;-76
2023/10/02 13:10:53;;;;;;;36.80;18.05;;;20.60;99.90;;;;;;5032300;28;20041;-76
2023/10/02 13:13:18;;;;;;;33.95;17.42;;;20.60;99.90;;;;;;5015820;28;20049;-78
2023/10/02 13:15:44;;;;;;;37.53;18.75;;;20.70;99.90;;;;;;5032136;28;20049;-76
2023/10/02 13:18:10;;;;;;;36.25;17.50;;;20.70;99.90;;;;;;5015775;28;20034;-78
2023/10/02 13:20:39;;;;;;;33.22;17.33;;;20.70;99.90;;;;;;5032457;28;20045;-76
2023/10/02 13:23:04;;;;;;;34.80;18.10;;;20.80;99.90;;;;;;5032201;28;20052;-77
2023/10/02 13:25:30;;;;;;;34.63;18.83;;;20.80;99.90;;;;;;5032108;28;20046;-78
2023/10/02 13:27:56;;;;;;;33.85;16.88;;;20.80;99.90;;;;;;5032338;28;20049;-77
2023/10/02 13:30:25;;;;;;;35.50;17.10;;;20.80;99.90;;;;;;5032355;28;20096;-76
2023/10/02 13:32:52;;;;;;;36.13;17.92;;;20.80;99.90;;;;;;5032008;28;20053;-77
2023/10/02 13:35:17;;;;;;;32.47;18.13;;;20.80;99.90;;;;;;5032085;28;20072;-77
2023/10/02 13:37:43;;;;;;;32.05;17.38;;;20.90;99.90;;;;;;5031977;28;20434;-76
2023/10/02 13:40:25;;;;;;;33.40;17.13;;;20.90;99.90;;;;;;5031959;28;20053;-78
2023/10/02 13:42:51;;;;;;;32.22;16.60;;;21.00;99.90;;;;;;5033892;28;20436;-77
2023/10/02 13:45:21;;;;;;;34.28;16.70;;;21.00;99.90;;;;;;5019555;28;20049;-76
2023/10/02 13:47:47;;;;;;;33.35;16.42;;;21.00;99.90;;;;;;5035980;28;20092;-77
2023/10/02 13:50:13;;;;;;;29.45;15.27;;;21.00;99.90;;;;;;5035975;28;20045;-77
2023/10/02 13:52:43;;;;;;;29.80;15.93;;;21.00;99.90;;;;;;5019422;28;20099;-77
2023/10/02 13:55:22;;;;;;;31.15;15.80;;;21.00;99.90;;;;;;5035861;28;20129;-78
2023/10/02 13:57:53;;;;;;;30.90;15.45;;;21.10;99.90;;;;;;5035673;28;20046;-78
2023/10/02 14:00:20;;;;;;;30.20;15.57;;;21.10;99.90;;;;;;5037232;28;20040;-77
2023/10/02 14:02:54;;;;;;;28.17;15.30;;;21.10;99.90;;;;;;5036924;28;20046;-77
2023/10/02 14:05:20;;;;;;;28.95;15.27;;;21.10;99.90;;;;;;5035693;28;20095;-76
2023/10/02 14:07:46;;;;;;;30.60;15.60;;;21.20;99.90;;;;;;5035877;28;20124;-77
2023/10/02 14:10:14;;;;;;;28.90;16.23;;;21.20;99.90;;;;;;5036208;28;20045;-77
2023/10/02 14:12:44;;;;;;;30.85;15.07;;;21.30;99.90;;;;;;5035652;28;20466;-76
2023/10/02 14:15:16;;;;;;;31.17;14.65;;;21.20;99.90;;;;;;5035608;28;20050;-76
2023/10/02 14:17:46;;;;;;;29.42;14.50;;;21.20;99.90;;;;;;5037209;28;20037;-75
2023/10/02 14:20:14;;;;;;;30.00;16.17;;;21.20;99.90;;;;;;5035432;28;20045;-77
2023/10/02 14:22:47;;;;;;;29.83;13.32;;;21.20;99.90;;;;;;5035404;28;20457;-77
2023/10/02 14:25:16;;;;;;;30.13;15.20;;;21.10;99.90;;;;;;5035397;28;20057;-76
2023/10/02 14:27:43;;;;;;;28.40;14.13;;;21.20;99.90;;;;;;5035195;28;20045;-77
2023/10/02 14:30:13;;;;;;;29.88;14.77;;;21.20;99.90;;;;;;5036749;28;20144;-77
2023/10/02 14:32:49;;;;;;;29.25;15.13;;;21.20;99.90;;;;;;5035169;28;20175;-77
2023/10/02 14:35:17;;;;;;;29.95;15.27;;;21.30;99.90;;;;;;5035101;28;20045;-77
2023/10/02 14:37:43;;;;;;;27.40;14.60;;;21.30;99.90;;;;;;5036538;28;20068;-77
2023/10/02 14:40:11;;;;;;;29.67;14.38;;;21.30;99.90;;;;;;5035067;28;20550;-77
2023/10/02 14:42:37;;;;;;;30.08;14.35;;;21.20;99.90;;;;;;5035316;28;20052;-78
2023/10/02 14:45:05;;;;;;;29.55;14.75;;;21.20;99.90;;;;;;5034915;28;20055;-77
2023/10/02 14:47:35;;;;;;;29.20;15.18;;;21.20;99.90;;;;;;5035192;28;20124;-77
2023/10/02 14:50:01;;;;;;;29.17;14.80;;;21.20;99.90;;;;;;5034948;28;20049;-76
2023/10/02 14:52:27;;;;;;;27.13;14.18;;;21.30;99.90;;;;;;5034842;28;20049;-78
2023/10/02 14:54:54;;;;;;;31.48;14.52;;;21.30;99.90;;;;;;5034861;28;20045;-78
2023/10/02 14:57:22;;;;;;;29.38;14.70;;;21.30;99.90;;;;;;5034691;28;20041;-77
2023/10/02 14:59:49;;;;;;;26.00;13.65;;;21.40;99.90;;;;;;5036493;28;20113;-76
2023/10/02 15:02:16;;;;;;;26.25;12.95;;;21.40;99.90;;;;;;5034790;28;20129;-76
2023/10/02 15:04:43;;;;;;;28.50;13.23;;;21.40;99.90;;;;;;5034874;28;20056;-76
2023/10/02 15:07:12;;;;;;;25.70;13.07;;;21.50;99.90;;;;;;5034609;28;20052;-76
2023/10/02 15:09:38;;;;;;;27.38;12.38;;;21.50;99.90;;;;;;5034591;28;20056;-77
2023/10/02 15:12:04;;;;;;;27.48;13.77;;;21.50;99.90;;;;;;5034857;28;20432;-78
2023/10/02 15:14:34;;;;;;;23.80;12.25;;;21.50;99.90;;;;;;5034361;28;20040;-77
2023/10/02 15:17:00;;;;;;;28.63;13.68;;;21.50;99.90;;;;;;5034361;28;20474;-77
2023/10/02 15:19:25;;;;;;;26.15;12.63;;;21.50;99.90;;;;;;5035573;28;20044;-76
2023/10/02 15:21:51;;;;;;;27.20;13.70;;;21.50;99.90;;;;;;5034614;28;20041;-76
2023/10/02 15:24:18;;;;;;;28.27;13.40;;;21.40;99.90;;;;;;5034235;28;20485;-76
2023/10/02 15:26:45;;;;;;;24.85;12.20;;;21.40;99.90;;;;;;5017594;28;20474;-76
2023/10/02 15:29:12;;;;;;;24.52;12.32;;;21.30;99.90;;;;;;5034020;28;20048;-76
2023/10/02 15:31:38;;;;;;;25.27;12.32;;;21.30;99.90;;;;;;5034068;28;20052;-78
2023/10/02 15:34:03;;;;;;;25.58;12.50;;;21.30;99.90;;;;;;5017883;28;20485;-77
2023/10/02 15:36:29;;;;;;;25.90;11.68;;;21.30;99.90;;;;;;5033925;28;20054;-77
2023/10/02 15:38:57;;;;;;;26.27;12.82;;;21.20;99.90;;;;;;5017379;28;20039;-76
2023/10/02 15:41:31;;;;;;;25.70;12.15;;;21.20;99.90;;;;;;5033959;28;20057;-77
2023/10/02 15:43:57;;;;;;;24.05;12.80;;;21.20;99.90;;;;;;5033826;28;20052;-77
2023/10/02 15:46:26;;;;;;;24.42;12.23;;;21.20;99.90;;;;;;5017032;28;20136;-77
2023/10/02 15:48:52;;;;;;;22.90;11.65;;;21.20;99.90;;;;;;5033775;28;20125;-78
2023/10/02 15:51:18;;;;;;;23.50;11.48;;;21.10;99.90;;;;;;5033764;28;20056;-78
2023/10/02 15:53:47;;;;;;;26.65;12.48;;;21.10;99.90;;;;;;5033951;28;20041;-78
2023/10/02 15:56:16;;;;;;;24.70;11.82;;;21.10;99.90;;;;;;5034846;28;20473;-78
2023/10/02 15:58:42;;;;;;;27.13;11.27;;;21.00;99.90;;;;;;5035284;28;20071;-78
2023/10/02 16:01:14;;;;;;;22.60;11.93;;;21.10;99.90;;;;;;5033567;28;20045;-78
2023/10/02 16:03:40;;;;;;;25.20;12.07;;;21.00;99.90;;;;;;5033815;28;20543;-77
2023/10/02 16:06:08;;;;;;;22.38;10.93;;;21.00;99.90;;;;;;5033241;28;20053;-77
2023/10/02 16:08:33;;;;;;;23.35;11.25;;;21.00;99.90;;;;;;5034581;28;20048;-78
2023/10/02 16:10:59;;;;;;;26.25;11.70;;;21.00;99.90;;;;;;5030523;28;20042;-77
2023/10/02 16:13:25;;;;;;;26.65;11.90;;;21.00;99.90;;;;;;5033460;28;20382;-76
2023/10/02 16:15:51;;;;;;;23.85;11.57;;;21.00;99.90;;;;;;5016610;28;20045;-79
2023/10/02 16:18:18;;;;;;;27.10;12.60;;;21.00;99.90;;;;;;5033033;28;20409;-79
2023/10/02 16:20:43;;;;;;;21.55;10.65;;;21.00;99.90;;;;;;5017723;28;20048;-78
2023/10/02 16:23:09;;;;;;;21.88;11.40;;;20.90;99.90;;;;;;5033137;28;20373;-77
2023/10/02 16:25:35;;;;;;;24.23;10.73;;;20.90;99.90;;;;;;5033275;28;20139;-79
2023/10/02 16:28:02;;;;;;;23.95;11.85;;;20.90;99.90;;;;;;5032566;28;20511;-78
2023/10/02 16:30:27;;;;;;;23.88;11.50;;;20.90;99.90;;;;;;5016306;28;20137;-78
2023/10/02 16:32:53;;;;;;;22.40;11.55;;;20.90;99.90;;;;;;5032480;28;20099;-77